createdAt,value
2018-12-22T00:01:07.650Z,100558.73
2018-12-22T00:03:35.145Z,100561.52
2018-12-22T00:06:02.607Z,100566.75
2018-12-22T00:08:30.101Z,100563.84
2018-12-22T00:10:57.550Z,100559.33
2018-12-22T00:13:25.027Z,100563.69
2018-12-22T00:15:52.492Z,100568.02
2018-12-22T00:18:19.985Z,100559.70
2018-12-22T00:20:47.461Z,100560.36
2018-12-22T00:23:14.920Z,100569.55
2018-12-22T00:25:42.418Z,100564.66
2018-12-22T00:28:09.877Z,100564.98
2018-12-22T00:30:37.352Z,100570.97
2018-12-22T00:33:04.808Z,100561.23
2018-12-22T00:35:32.289Z,100564.67
2018-12-22T00:37:59.785Z,100567.45
2018-12-22T00:40:27.263Z,100572.50
2018-12-22T00:42:54.748Z,100568.39
2018-12-22T00:45:22.502Z,100564.03
2018-12-22T00:47:50.004Z,100563.54
2018-12-22T00:50:17.491Z,100565.35
2018-12-22T00:52:44.984Z,100567.92
2018-12-22T00:55:12.454Z,100559.94
2018-12-22T00:57:40.041Z,100568.23
2018-12-22T01:00:08.307Z,100558.98
2018-12-22T01:02:35.804Z,100570.00
2018-12-22T01:05:03.447Z,100561.08
2018-12-22T01:07:30.941Z,100559.95
2018-12-22T01:09:58.494Z,100559.14
2018-12-22T01:12:25.946Z,100564.76
2018-12-22T01:14:53.425Z,100563.40
2018-12-22T01:17:20.916Z,100562.36
2018-12-22T01:19:48.381Z,100556.75
2018-12-22T01:22:15.869Z,100558.92
2018-12-22T01:24:43.372Z,100560.48
2018-12-22T01:27:10.827Z,100562.94
2018-12-22T01:29:38.311Z,100564.73
2018-12-22T01:32:05.755Z,100571.77
2018-12-22T01:34:33.255Z,100573.55
2018-12-22T01:37:01.057Z,100572.41
2018-12-22T01:39:28.550Z,100575.53
2018-12-22T01:41:55.999Z,100580.16
2018-12-22T01:44:23.471Z,100583.02
2018-12-22T01:46:50.929Z,100577.27
2018-12-22T01:49:18.412Z,100571.93
2018-12-22T01:51:45.906Z,100572.55
2018-12-22T01:54:13.401Z,100567.77
2018-12-22T01:56:40.867Z,100569.55
2018-12-22T01:59:08.345Z,100578.16
2018-12-22T02:01:35.846Z,100571.30
2018-12-22T02:04:03.325Z,100571.63
2018-12-22T02:06:30.826Z,100568.83
2018-12-22T02:08:58.387Z,100561.87
2018-12-22T02:11:25.864Z,100566.59
2018-12-22T02:13:53.316Z,100558.42
2018-12-22T02:16:20.778Z,100559.87
2018-12-22T02:18:48.245Z,100550.22
2018-12-22T02:21:15.722Z,100550.84
2018-12-22T02:23:43.156Z,100550.14
2018-12-22T02:26:10.667Z,100539.20
2018-12-22T02:28:38.156Z,100539.84
2018-12-22T02:31:05.604Z,100534.88
2018-12-22T02:33:33.088Z,100539.95
2018-12-22T02:36:00.566Z,100533.19
2018-12-22T02:38:28.015Z,100535.33
2018-12-22T02:40:55.525Z,100532.49
2018-12-22T02:43:23.007Z,100530.17
2018-12-22T02:45:50.445Z,100525.23
2018-12-22T02:48:17.944Z,100523.34
2018-12-22T02:50:45.402Z,100523.95
2018-12-22T02:53:12.904Z,100512.79
2018-12-22T02:55:40.349Z,100508.33
2018-12-22T02:58:07.832Z,100501.32
2018-12-22T03:00:35.447Z,100493.80
2018-12-22T03:03:02.922Z,100488.23
2018-12-22T03:05:30.418Z,100472.35
2018-12-22T03:07:59.370Z,100476.69
2018-12-22T03:10:27.216Z,100468.30
2018-12-22T03:12:54.677Z,100473.70
2018-12-22T03:15:22.170Z,100459.21
2018-12-22T03:17:49.622Z,100458.09
2018-12-22T03:20:17.840Z,100449.88
2018-12-22T03:22:45.278Z,100440.33
2018-12-22T03:25:12.745Z,100432.02
2018-12-22T03:27:40.282Z,100437.67
2018-12-22T03:30:07.845Z,100424.44
2018-12-22T03:32:35.329Z,100428.16
2018-12-22T03:35:02.796Z,100430.04
2018-12-22T03:37:30.712Z,100436.08
2018-12-22T03:39:58.192Z,100432.90
2018-12-22T03:42:25.667Z,100425.95
2018-12-22T03:44:53.110Z,100417.28
2018-12-22T03:47:20.601Z,100415.66
2018-12-22T03:49:48.066Z,100415.19
2018-12-22T03:52:15.541Z,100415.84
2018-12-22T03:54:43.256Z,100403.23
2018-12-22T03:57:10.722Z,100406.35
2018-12-22T03:59:38.197Z,100399.48
2018-12-22T04:02:05.692Z,100389.45
2018-12-22T04:04:33.125Z,100385.69
2018-12-22T04:07:00.613Z,100390.79
2018-12-22T04:09:28.076Z,100384.89
2018-12-22T04:11:55.686Z,100396.17
2018-12-22T04:14:23.160Z,100393.52
2018-12-22T04:16:50.623Z,100384.83
2018-12-22T04:19:18.114Z,100397.52
2018-12-22T04:21:45.563Z,100390.83
2018-12-22T04:24:13.090Z,100399.44
2018-12-22T04:26:40.585Z,100408.60
2018-12-22T04:29:08.071Z,100397.13
2018-12-22T04:31:35.521Z,100400.70
2018-12-22T04:34:02.993Z,100410.77
2018-12-22T04:36:30.470Z,100405.08
2018-12-22T04:38:57.955Z,100405.63
2018-12-22T04:41:26.053Z,100408.99
2018-12-22T04:43:53.850Z,100404.53
2018-12-22T04:46:21.528Z,100413.77
2018-12-22T04:48:49.259Z,100416.47
2018-12-22T04:51:16.755Z,100421.37
2018-12-22T04:53:44.247Z,100429.80
2018-12-22T04:56:11.703Z,100427.03
2018-12-22T04:58:39.225Z,100425.36
2018-12-22T05:01:06.684Z,100431.34
2018-12-22T05:03:34.175Z,100432.75
2018-12-22T05:06:01.609Z,100429.41
2018-12-22T05:08:29.091Z,100444.72
2018-12-22T05:10:56.579Z,100444.27
2018-12-22T05:13:24.029Z,100452.31
2018-12-22T05:15:51.504Z,100462.30
2018-12-22T05:18:18.994Z,100475.69
2018-12-22T05:20:46.425Z,100485.27
2018-12-22T05:23:13.919Z,100485.09
2018-12-22T05:25:41.359Z,100487.66
2018-12-22T05:28:08.827Z,100490.13
2018-12-22T05:30:36.319Z,100498.92
2018-12-22T05:33:03.883Z,100507.11
2018-12-22T05:35:31.334Z,100502.99
2018-12-22T05:37:58.804Z,100516.23
2018-12-22T05:40:26.259Z,100518.28
2018-12-22T05:42:53.784Z,100513.75
2018-12-22T05:45:21.268Z,100525.31
2018-12-22T05:47:48.938Z,100524.75
2018-12-22T05:50:16.408Z,100530.34
2018-12-22T05:52:43.849Z,100524.52
2018-12-22T05:55:11.358Z,100544.06
2018-12-22T05:57:38.882Z,100545.13
2018-12-22T06:00:08.892Z,100541.84
2018-12-22T06:02:36.361Z,100537.92
2018-12-22T06:05:06.646Z,100546.09
2018-12-22T06:07:34.099Z,100553.66
2018-12-22T06:10:01.597Z,100555.97
2018-12-22T06:12:29.067Z,100563.64
2018-12-22T06:14:56.526Z,100558.75
2018-12-22T06:17:24.004Z,100562.58
2018-12-22T06:19:51.462Z,100566.50
2018-12-22T06:22:18.943Z,100571.28
2018-12-22T06:24:46.398Z,100571.61
2018-12-22T06:27:13.993Z,100589.33
2018-12-22T06:29:41.467Z,100590.19
2018-12-22T06:32:08.959Z,100598.41
2018-12-22T06:34:36.397Z,100600.64
2018-12-22T06:37:03.867Z,100604.48
2018-12-22T06:39:31.357Z,100617.97
2018-12-22T06:41:58.865Z,100620.36
2018-12-22T06:44:26.326Z,100631.78
2018-12-22T06:46:53.765Z,100639.21
2018-12-22T06:49:21.258Z,100651.05
2018-12-22T06:51:49.299Z,100648.14
2018-12-22T06:54:16.768Z,100644.98
2018-12-22T06:56:45.143Z,100659.80
2018-12-22T06:59:12.594Z,100671.54
2018-12-22T07:01:40.089Z,100669.64
2018-12-22T07:04:07.562Z,100677.17
2018-12-22T07:06:35.059Z,100681.03
2018-12-22T07:09:02.529Z,100681.48
2018-12-22T07:11:29.976Z,100694.88
2018-12-22T07:13:57.477Z,100693.09
2018-12-22T07:16:24.942Z,100706.80
2018-12-22T07:18:52.373Z,100707.47
2018-12-22T07:21:19.878Z,100713.14
2018-12-22T07:23:47.307Z,100723.98
2018-12-22T07:26:14.795Z,100745.25
2018-12-22T07:28:42.294Z,100728.80
2018-12-22T07:31:09.778Z,100743.34
2018-12-22T07:33:37.294Z,100743.23
2018-12-22T07:36:04.723Z,100750.60
2018-12-22T07:38:32.239Z,100759.77
2018-12-22T07:40:59.714Z,100760.84
2018-12-22T07:43:27.983Z,100768.47
2018-12-22T07:45:55.461Z,100772.21
2018-12-22T07:48:22.930Z,100768.22
2018-12-22T07:50:50.421Z,100766.13
2018-12-22T07:53:17.888Z,100786.07
2018-12-22T07:55:45.348Z,100787.20
2018-12-22T07:58:12.832Z,100785.58
2018-12-22T08:00:40.323Z,100798.89
2018-12-22T08:03:07.777Z,100802.21
2018-12-22T08:05:39.035Z,100808.37
2018-12-22T08:08:04.778Z,100817.39
2018-12-22T08:10:32.212Z,100824.78
2018-12-22T08:12:59.697Z,100838.02
2018-12-22T08:15:27.148Z,100840.28
2018-12-22T08:17:54.607Z,100864.92
2018-12-22T08:20:22.082Z,100861.86
2018-12-22T08:22:49.587Z,100877.13
2018-12-22T08:25:17.063Z,100882.30
2018-12-22T08:27:44.518Z,100881.02
2018-12-22T08:30:11.994Z,100887.65
2018-12-22T08:32:39.463Z,100900.23
2018-12-22T08:35:06.896Z,100903.73
2018-12-22T08:37:35.611Z,100916.56
2018-12-22T08:40:03.244Z,100929.52
2018-12-22T08:42:30.729Z,100927.05
2018-12-22T08:44:58.164Z,100934.80
2018-12-22T08:47:25.724Z,100947.73
2018-12-22T08:49:53.338Z,100959.92
2018-12-22T08:52:20.791Z,100968.93
2018-12-22T08:54:48.268Z,100972.69
2018-12-22T08:57:15.727Z,100975.48
2018-12-22T08:59:43.207Z,100986.61
2018-12-22T09:02:10.690Z,100995.47
2018-12-22T09:04:38.251Z,101004.41
2018-12-22T09:07:05.826Z,101010.63
2018-12-22T09:09:33.296Z,101005.34
2018-12-22T09:12:00.743Z,101017.20
2018-12-22T09:14:28.213Z,101020.33
2018-12-22T09:16:55.686Z,101027.91
2018-12-22T09:19:23.167Z,101039.70
2018-12-22T09:21:50.651Z,101039.14
2018-12-22T09:24:18.128Z,101044.02
2018-12-22T09:26:45.615Z,101046.83
2018-12-22T09:29:13.102Z,101048.67
2018-12-22T09:31:40.582Z,101057.75
2018-12-22T09:34:13.207Z,101065.86
2018-12-22T09:36:37.570Z,101070.08
2018-12-22T09:39:07.107Z,101078.11
2018-12-22T09:41:34.633Z,101066.83
2018-12-22T09:44:02.092Z,101075.64
2018-12-22T09:46:30.081Z,101072.46
2018-12-22T09:48:57.608Z,101079.84
2018-12-22T09:51:25.161Z,101082.58
2018-12-22T09:53:52.631Z,101087.01
2018-12-22T09:56:20.135Z,101084.42
2018-12-22T09:58:47.731Z,101086.41
2018-12-22T10:01:15.226Z,101093.48
2018-12-22T10:03:42.675Z,101095.99
2018-12-22T10:06:10.132Z,101094.95
2018-12-22T10:08:37.686Z,101095.99
2018-12-22T10:11:05.190Z,101103.91
2018-12-22T10:13:32.636Z,101097.94
2018-12-22T10:16:00.136Z,101096.75
2018-12-22T10:18:27.595Z,101101.28
2018-12-22T10:20:55.032Z,101101.80
2018-12-22T10:23:22.487Z,101101.59
2018-12-22T10:25:49.985Z,101107.38
2018-12-22T10:28:17.581Z,101104.03
2018-12-22T10:30:45.031Z,101112.66
2018-12-22T10:33:12.512Z,101113.36
2018-12-22T10:35:39.992Z,101111.51
2018-12-22T10:38:07.476Z,101120.66
2018-12-22T10:40:34.926Z,101112.64
2018-12-22T10:43:02.426Z,101108.55
2018-12-22T10:45:29.963Z,101111.69
2018-12-22T10:47:57.462Z,101110.19
2018-12-22T10:50:24.945Z,101113.17
2018-12-22T10:52:52.855Z,101111.15
2018-12-22T10:55:20.296Z,101115.30
2018-12-22T10:57:47.767Z,101124.41
2018-12-22T11:00:15.337Z,101122.45
2018-12-22T11:02:42.950Z,101113.31
2018-12-22T11:05:11.027Z,101115.15
2018-12-22T11:07:38.517Z,101119.59
2018-12-22T11:10:09.930Z,101116.77
2018-12-22T11:12:37.361Z,101123.94
2018-12-22T11:15:07.156Z,101114.81
2018-12-22T11:17:34.612Z,101123.10
2018-12-22T11:20:02.085Z,101119.77
2018-12-22T11:22:29.567Z,101119.73
2018-12-22T11:24:57.025Z,101119.25
2018-12-22T11:27:24.612Z,101110.35
2018-12-22T11:29:52.099Z,101116.95
2018-12-22T11:32:19.589Z,101120.04
2018-12-22T11:34:47.070Z,101119.08
2018-12-22T11:37:14.532Z,101124.52
2018-12-22T11:39:42.029Z,101125.08
2018-12-22T11:42:09.473Z,101118.44
2018-12-22T11:44:36.950Z,101131.17
2018-12-22T11:47:07.629Z,101125.37
2018-12-22T11:49:35.090Z,101127.14
2018-12-22T11:52:02.610Z,101123.02
2018-12-22T11:54:30.140Z,101126.17
2018-12-22T11:56:58.100Z,101108.47
2018-12-22T11:59:25.792Z,101126.50
2018-12-22T12:01:53.287Z,101114.63
2018-12-22T12:04:20.770Z,101123.68
2018-12-22T12:06:48.220Z,101128.63
2018-12-22T12:09:15.725Z,101138.48
2018-12-22T12:11:43.177Z,101151.41
2018-12-22T12:14:10.656Z,101147.99
2018-12-22T12:16:38.512Z,101145.14
2018-12-22T12:19:10.007Z,101150.50
2018-12-22T12:21:37.450Z,101143.65
2018-12-22T12:24:04.935Z,101154.16
2018-12-22T12:26:32.619Z,101160.00
2018-12-22T12:29:00.101Z,101170.84
2018-12-22T12:31:27.555Z,101186.42
2018-12-22T12:33:55.147Z,101186.87
2018-12-22T12:36:22.611Z,101197.63
2018-12-22T12:38:50.102Z,101204.39
2018-12-22T12:41:17.619Z,101209.87
2018-12-22T12:43:45.113Z,101206.91
2018-12-22T12:46:12.615Z,101205.27
2018-12-22T12:48:40.085Z,101219.03
2018-12-22T12:51:07.578Z,101223.50
2018-12-22T12:53:35.040Z,101213.95
2018-12-22T12:56:02.520Z,101222.50
2018-12-22T12:58:29.982Z,101231.78
2018-12-22T13:00:57.457Z,101244.89
2018-12-22T13:03:24.917Z,101229.30
2018-12-22T13:05:52.411Z,101235.11
2018-12-22T13:08:19.916Z,101239.52
2018-12-22T13:10:47.381Z,101244.84
2018-12-22T13:13:18.861Z,101255.95
2018-12-22T13:15:46.340Z,101252.25
2018-12-22T13:18:13.825Z,101253.44
2018-12-22T13:20:41.281Z,101251.14
2018-12-22T13:23:08.762Z,101249.02
2018-12-22T13:25:36.206Z,101256.61
2018-12-22T13:28:03.722Z,101266.59
2018-12-22T13:30:31.177Z,101266.59
2018-12-22T13:32:58.712Z,101264.64
2018-12-22T13:35:26.327Z,101268.05
2018-12-22T13:37:53.790Z,101265.45
2018-12-22T13:40:21.259Z,101269.72
2018-12-22T13:42:48.722Z,101276.77
2018-12-22T13:45:16.178Z,101280.78
2018-12-22T13:47:43.736Z,101294.84
2018-12-22T13:50:13.471Z,101298.98
2018-12-22T13:52:40.994Z,101302.75
2018-12-22T13:55:10.196Z,101307.87
2018-12-22T13:57:42.700Z,101315.47
2018-12-22T14:00:18.306Z,101310.41
2018-12-22T14:02:45.802Z,101308.43
2018-12-22T14:05:22.472Z,101316.91
2018-12-22T14:07:50.146Z,101323.52
2018-12-22T14:10:18.851Z,101325.06
2018-12-22T14:12:46.363Z,101318.09
2018-12-22T14:15:22.256Z,101331.97
2018-12-22T14:17:56.479Z,101338.10
2018-12-22T14:20:23.922Z,101338.59
2018-12-22T14:22:51.477Z,101339.55
2018-12-22T14:25:19.370Z,101346.50
2018-12-22T14:27:46.871Z,101349.13
2018-12-22T14:30:14.454Z,101353.04
2018-12-22T14:32:41.926Z,101356.61
2018-12-22T14:35:14.957Z,101374.17
2018-12-22T14:37:42.433Z,101374.05
2018-12-22T14:40:11.610Z,101374.92
2018-12-22T14:42:39.112Z,101383.33
2018-12-22T14:45:11.506Z,101376.37
2018-12-22T14:47:38.986Z,101388.01
2018-12-22T14:50:13.406Z,101384.44
2018-12-22T14:52:41.025Z,101386.05
2018-12-22T14:55:11.891Z,101399.41
2018-12-22T14:57:57.434Z,101413.36
2018-12-22T15:00:24.999Z,101415.64
2018-12-22T15:02:52.486Z,101423.43
2018-12-22T15:05:19.914Z,101435.41
2018-12-22T15:07:47.510Z,101447.66
2018-12-22T15:10:14.971Z,101460.00
2018-12-22T15:12:42.461Z,101434.81
2018-12-22T15:15:11.213Z,101441.94
2018-12-22T15:17:41.389Z,101445.36
2018-12-22T15:20:19.215Z,101438.63
2018-12-22T15:22:46.705Z,101432.96
2018-12-22T15:25:14.165Z,101439.48
2018-12-22T15:27:41.654Z,101441.25
2018-12-22T15:30:13.084Z,101445.02
2018-12-22T15:32:46.224Z,101451.98
2018-12-22T15:35:10.195Z,101455.04
2018-12-22T15:37:37.865Z,101460.56
2018-12-22T15:40:09.976Z,101451.73
2018-12-22T15:42:37.623Z,101440.89
2018-12-22T15:45:11.142Z,101450.72
2018-12-22T15:47:38.599Z,101462.77
2018-12-22T15:50:12.381Z,101470.50
2018-12-22T15:52:39.822Z,101472.11
2018-12-22T15:55:08.695Z,101469.23
2018-12-22T15:57:36.451Z,101478.07
2018-12-22T16:00:07.108Z,101483.94
2018-12-22T16:02:34.555Z,101476.52
2018-12-22T16:05:02.079Z,101485.20
2018-12-22T16:07:29.626Z,101486.91
2018-12-22T16:09:57.132Z,101483.94
2018-12-22T16:12:24.730Z,101490.97
2018-12-22T16:14:52.266Z,101492.73
2018-12-22T16:17:19.741Z,101493.17
2018-12-22T16:19:47.250Z,101492.84
2018-12-22T16:22:14.726Z,101491.63
2018-12-22T16:24:42.256Z,101495.69
2018-12-22T16:27:09.755Z,101500.27
2018-12-22T16:29:38.040Z,101503.41
2018-12-22T16:32:05.536Z,101503.28
2018-12-22T16:34:32.980Z,101507.68
2018-12-22T16:37:00.467Z,101511.96
2018-12-22T16:39:27.925Z,101509.44
2018-12-22T16:41:55.478Z,101509.66
2018-12-22T16:44:22.990Z,101515.31
2018-12-22T16:46:50.449Z,101511.30
2018-12-22T16:49:17.915Z,101520.34
2018-12-22T16:51:45.369Z,101525.34
2018-12-22T16:54:12.848Z,101528.13
2018-12-22T16:56:40.330Z,101533.30
2018-12-22T16:59:08.748Z,101530.78
2018-12-22T17:01:38.955Z,101533.55
2018-12-22T17:04:06.424Z,101531.42
2018-12-22T17:06:34.277Z,101530.08
2018-12-22T17:09:01.774Z,101545.39
2018-12-22T17:11:29.230Z,101560.73
2018-12-22T17:13:56.687Z,101555.77
2018-12-22T17:16:24.150Z,101553.83
2018-12-22T17:18:51.621Z,101543.67
2018-12-22T17:21:20.731Z,101556.66
2018-12-22T17:23:52.326Z,101561.29
2018-12-22T17:26:21.319Z,101570.26
2018-12-22T17:28:48.787Z,101574.91
2018-12-22T17:31:16.274Z,101576.44
2018-12-22T17:33:43.763Z,101577.03
2018-12-22T17:36:11.232Z,101581.18
2018-12-22T17:38:38.820Z,101584.95
2018-12-22T17:41:06.324Z,101590.55
2018-12-22T17:43:34.431Z,101591.60
2018-12-22T17:46:01.974Z,101592.78
2018-12-22T17:48:29.455Z,101600.33
2018-12-22T17:50:56.919Z,101608.20
2018-12-22T17:53:24.416Z,101612.27
2018-12-22T17:55:51.857Z,101615.78
2018-12-22T17:58:19.460Z,101616.03
2018-12-22T18:00:46.967Z,101617.94
2018-12-22T18:03:14.545Z,101623.91
2018-12-22T18:05:42.026Z,101631.23
2018-12-22T18:08:09.516Z,101638.89
2018-12-22T18:10:37.091Z,101639.18
2018-12-22T18:13:04.585Z,101646.61
2018-12-22T18:15:32.037Z,101655.73
2018-12-22T18:17:59.522Z,101651.85
2018-12-22T18:20:27.016Z,101657.75
2018-12-22T18:22:54.511Z,101663.24
2018-12-22T18:25:22.291Z,101660.05
2018-12-22T18:27:51.584Z,101669.43
2018-12-22T18:30:19.186Z,101669.69
2018-12-22T18:32:46.760Z,101672.33
2018-12-22T18:35:14.302Z,101683.42
2018-12-22T18:37:41.790Z,101673.45
2018-12-22T18:40:18.750Z,101675.66
2018-12-22T18:42:47.126Z,101671.00
2018-12-22T18:45:14.723Z,101675.91
2018-12-22T18:47:43.200Z,101680.23
2018-12-22T18:50:16.805Z,101677.01
2018-12-22T18:52:44.304Z,101677.92
2018-12-22T18:55:11.901Z,101678.18
2018-12-22T18:57:39.373Z,101669.69
2018-12-22T19:00:18.222Z,101672.94
2018-12-22T19:02:45.734Z,101671.66
2018-12-22T19:05:13.929Z,101669.47
2018-12-22T19:07:41.509Z,101673.70
2018-12-22T19:10:18.707Z,101681.05
2018-12-22T19:12:46.229Z,101684.88
2018-12-22T19:15:13.688Z,101695.17
2018-12-22T19:17:41.146Z,101687.33
2018-12-22T19:20:22.310Z,101692.58
2018-12-22T19:22:49.747Z,101704.70
2018-12-22T19:25:17.258Z,101700.84
2018-12-22T19:27:44.746Z,101697.53
2018-12-22T19:30:12.185Z,101694.18
2018-12-22T19:32:39.635Z,101690.44
2018-12-22T19:35:07.218Z,101694.47
2018-12-22T19:37:35.560Z,101696.41
2018-12-22T19:40:03.256Z,101703.55
2018-12-22T19:42:30.699Z,101709.52
2018-12-22T19:44:58.173Z,101709.08
2018-12-22T19:47:25.615Z,101709.81
2018-12-22T19:49:53.299Z,101710.56
2018-12-22T19:52:20.760Z,101710.59
2018-12-22T19:54:48.364Z,101718.14
2018-12-22T19:57:15.820Z,101718.11
2018-12-22T19:59:43.278Z,101711.08
2018-12-22T20:02:10.754Z,101723.75
2018-12-22T20:04:38.218Z,101719.49
2018-12-22T20:07:05.710Z,101727.56
2018-12-22T20:09:33.209Z,101728.37
2018-12-22T20:12:00.735Z,101732.72
2018-12-22T20:14:28.219Z,101736.03
2018-12-22T20:16:55.683Z,101733.61
2018-12-22T20:19:23.175Z,101728.74
2018-12-22T20:21:50.678Z,101736.90
2018-12-22T20:24:18.155Z,101731.50
2018-12-22T20:26:45.644Z,101738.28
2018-12-22T20:29:13.163Z,101739.63
2018-12-22T20:31:40.650Z,101735.48
2018-12-22T20:34:11.166Z,101737.30
2018-12-22T20:36:37.758Z,101746.27
2018-12-22T20:39:06.458Z,101747.12
2018-12-22T20:41:33.964Z,101751.22
2018-12-22T20:44:01.937Z,101746.40
2018-12-22T20:46:29.514Z,101754.53
2018-12-22T20:48:57.012Z,101757.75
2018-12-22T20:51:24.512Z,101764.24
2018-12-22T20:53:51.966Z,101769.11
2018-12-22T20:56:19.698Z,101767.20
2018-12-22T21:02:17.889Z,101771.12
2018-12-22T21:04:45.371Z,101781.98
2018-12-22T21:07:12.824Z,101787.13
2018-12-22T21:09:40.358Z,101791.44
2018-12-22T21:16:20.789Z,101776.19
2018-12-22T21:18:48.293Z,101776.97
2018-12-22T21:21:15.828Z,101775.31
2018-12-22T21:23:43.294Z,101776.17
2018-12-22T21:26:10.837Z,101784.30
2018-12-22T21:28:38.299Z,101781.30
2018-12-22T21:31:05.759Z,101774.31
2018-12-22T21:33:33.277Z,101784.06
2018-12-22T21:36:00.739Z,101794.65
2018-12-22T21:38:28.207Z,101796.84
2018-12-22T21:40:55.696Z,101794.14
2018-12-22T21:43:23.200Z,101790.89
2018-12-22T21:45:50.665Z,101791.44
2018-12-22T21:48:18.115Z,101797.38
2018-12-22T21:50:45.600Z,101806.06
2018-12-22T21:53:13.104Z,101806.59
2018-12-22T21:55:40.638Z,101809.34
2018-12-22T21:58:08.139Z,101811.50
2018-12-22T22:00:36.655Z,101813.37
2018-12-22T22:03:04.167Z,101823.16
2018-12-22T22:05:31.643Z,101820.66
2018-12-22T22:07:59.121Z,101826.86
2018-12-22T22:10:26.597Z,101829.86
2018-12-22T22:12:54.065Z,101824.42
2018-12-22T22:15:21.546Z,101830.69
2018-12-22T22:17:49.134Z,101829.06
2018-12-22T22:20:16.850Z,101834.73
2018-12-22T22:22:44.350Z,101838.56
2018-12-22T22:25:11.846Z,101840.45
2018-12-22T22:27:39.298Z,101846.70
2018-12-22T22:30:06.999Z,101849.09
2018-12-22T22:32:34.484Z,101852.61
2018-12-22T22:35:01.954Z,101859.08
2018-12-22T22:37:29.415Z,101866.08
2018-12-22T22:39:56.876Z,101867.42
2018-12-22T22:42:24.334Z,101867.41
2018-12-22T22:44:51.816Z,101868.48
2018-12-22T22:47:19.306Z,101866.86
2018-12-22T22:49:46.819Z,101871.74
2018-12-22T22:52:14.288Z,101866.59
2018-12-22T22:54:41.750Z,101867.45
2018-12-22T22:57:09.237Z,101874.23
2018-12-22T22:59:36.738Z,101872.90
2018-12-22T23:02:04.340Z,101871.53
2018-12-22T23:04:31.809Z,101863.89
2018-12-22T23:06:59.261Z,101864.66
2018-12-22T23:09:26.749Z,101862.27
2018-12-22T23:11:54.273Z,101863.38
2018-12-22T23:14:21.806Z,101860.95
2018-12-22T23:16:49.333Z,101865.56
2018-12-22T23:19:16.866Z,101869.08
2018-12-22T23:21:44.360Z,101872.57
2018-12-22T23:24:11.839Z,101867.68
2018-12-22T23:26:39.341Z,101873.09
2018-12-22T23:29:06.782Z,101870.06
2018-12-22T23:31:34.579Z,101876.05
2018-12-22T23:34:02.049Z,101867.92
2018-12-22T23:36:29.503Z,101874.70
2018-12-22T23:38:56.973Z,101875.50
2018-12-22T23:41:24.443Z,101875.80
2018-12-22T23:43:51.889Z,101877.69
2018-12-22T23:46:19.373Z,101873.69
2018-12-22T23:48:46.809Z,101870.64
2018-12-22T23:51:14.317Z,101878.01
2018-12-22T23:53:41.769Z,101883.45
2018-12-22T23:56:09.291Z,101873.50
2018-12-22T23:58:36.759Z,101878.61
